aviador You're here:

KHUL Decoded Metar

HOULTON in ME, USA
Report Time2018-05-25 19:53:00
UTC Time2018-05-25 20:37:50
Flight Rules vfr VFR
Wind360° at 05 kt
W.Decomp.*RWY 01: 5.0 kt HW 0.7 kt RCW
RWY 05: 4.2 kt HW 2.6 kt LCW
Visibility9999 m
Phenomena:N/A
Clouds:Few 110 Hf
Expected CloudBase > 5,600 ft AGL from Temp-Dew spread
CeilingNone
Temp27°C (ISA +13)
Dew Point13°C (42% RH)
Heat Index27.0°C
AAT26.1°C
QNH998 hPa
Density Alt2,697 ft
Elevation492 ft
Report Wrong Elevation
Raw Report
KHUL 251953Z AUTO 36005KT 8SM FEW110 27/13 A2947 RMK AO2 SLP979
T02720133=

Extra information for KHUL:More info

Metar Taf Metar & Taf Last 4 Metars F.Rules Stats Wind Profile Meteogram Temp Stats Airport Information Weather charts Add Link Nearby VenuesMetar ALERT Operation Metar Decoded Social comments

AIRNAV info for KHUL